Time;durP1;ratioP1;P1;durP2;ratioP2;P2;SDS_P1;SDS_P2;PMS_P1;PMS_P2;Temp;Humidity;BMP_temperature;BMP_pressure;BME280_temperature;BME280_humidity;BME280_pressure;Samples;Min_cycle;Max_cycle;Signal;HPM_P1;HPM_P2
2023/10/12 00:01:23;;;;;;;27.95;11.55;;;;;;;-146.27;87.55;81669.13;5017405;28;20037;-66
2023/10/12 00:03:54;;;;;;;40.05;12.13;;;;;;;-146.27;87.59;81697.22;5022935;28;20029;-66
2023/10/12 00:06:19;;;;;;;26.50;10.85;;;;;;;-146.27;87.29;81667.09;5016539;28;20022;-64
2023/10/12 00:08:45;;;;;;;32.60;11.38;;;;;;;-146.27;87.60;81697.22;5013671;28;20021;-66
2023/10/12 00:11:11;;;;;;;26.02;9.23;;;;;;;-146.27;88.40;81823.78;5020909;28;20021;-67
2023/10/12 00:13:41;;;;;;;22.10;8.93;;;;;;;-146.27;88.34;81797.66;5020218;28;20393;-66
2023/10/12 00:16:06;;;;;;;25.17;8.45;;;;;;;-146.27;87.31;81789.63;5017731;28;20041;-66
2023/10/12 00:18:35;;;;;;;23.33;9.95;;;;;;;-146.27;87.63;81813.72;5018077;28;20456;-66
2023/10/12 00:21:05;;;;;;;26.00;7.70;;;;;;;-146.27;86.97;81745.44;5025525;28;20127;-65
2023/10/12 00:23:33;;;;;;;29.50;7.30;;;;;;;-146.27;87.52;81813.72;5021220;28;20499;-66
2023/10/12 00:25:59;;;;;;;19.90;6.43;;;;;;;-146.27;87.54;81797.66;5023463;28;20448;-66
2023/10/12 00:28:37;;;;;;;19.67;6.50;;;;;;;-146.27;86.83;81769.53;5018924;28;20026;-66
2023/10/12 00:31:16;;;;;;;16.45;5.78;;;;;;;-146.27;87.21;81815.72;5016948;28;20036;-66
2023/10/12 00:33:41;;;;;;;26.80;6.15;;;;;;;-146.27;87.35;81765.53;5021349;28;20059;-65
2023/10/12 00:36:19;;;;;;;17.63;7.22;;;;;;;-146.27;87.59;81845.88;5016820;28;20498;-65
2023/10/12 00:38:46;;;;;;;20.35;5.45;;;;;;;-146.27;88.01;81926.22;5025664;28;20529;-66
2023/10/12 00:41:14;;;;;;;15.20;5.70;;;;;;;-146.27;87.90;81914.16;5020263;28;20104;-65
2023/10/12 00:49:18;;;;;;;16.13;5.20;;;;;;;-146.27;88.35;81886.03;5023203;28;20401;-65
2023/10/12 00:51:52;;;;;;;23.92;5.18;;;;;;;-146.27;88.70;81894.06;5028708;28;20048;-65
2023/10/12 00:54:40;;;;;;;21.65;5.78;;;;;;;-146.27;88.75;81886.03;5026700;28;20044;-65
2023/10/12 00:57:08;;;;;;;17.02;5.60;;;;;;;-146.27;88.63;81873.97;5024603;28;20699;-65
2023/10/12 00:59:34;;;;;;;25.13;5.68;;;;;;;-146.27;89.10;81910.13;5022636;28;20036;-65
2023/10/12 01:02:09;;;;;;;23.67;6.70;;;;;;;-146.27;88.41;81890.06;5019630;28;20025;-65
2023/10/12 01:04:36;;;;;;;16.75;6.00;;;;;;;-146.27;88.25;81841.84;5026008;28;20057;-65
2023/10/12 01:07:06;;;;;;;17.58;4.90;;;;;;;-146.27;88.16;81882.00;5026030;28;20025;-65
2023/10/12 01:09:45;;;;;;;13.68;5.10;;;;;;;-146.27;88.26;81878.00;5027234;28;20103;-65
2023/10/12 01:12:13;;;;;;;15.32;5.10;;;;;;;-146.27;88.43;81894.06;5022514;28;20404;-65
2023/10/12 01:14:43;;;;;;;11.55;3.80;;;;;;;-146.27;88.43;81926.22;5025578;28;20049;-65
2023/10/12 01:17:25;;;;;;;11.18;4.20;;;;;;;-146.27;88.46;81908.13;5021669;28;20496;-65
2023/10/12 01:19:51;;;;;;;11.95;3.40;;;;;;;-146.27;88.40;81926.22;5023807;28;20033;-65
2023/10/12 01:22:25;;;;;;;11.68;3.42;;;;;;;-146.27;88.81;81918.16;5031519;28;20017;-65
2023/10/12 01:27:21;;;;;;;11.30;4.20;;;;;;;-146.27;89.25;81898.09;5031612;28;20763;-65
2023/10/12 01:29:50;;;;;;;11.48;3.60;;;;;;;-146.27;88.95;81896.06;5025971;28;20029;-65
2023/10/12 01:34:52;;;;;;;16.05;4.32;;;;;;;-146.27;89.39;81900.09;5028399;28;20033;-66
2023/10/12 01:37:22;;;;;;;13.45;4.20;;;;;;;-146.27;89.51;81922.19;5026747;28;20037;-65
2023/10/12 01:43:12;;;;;;;16.10;3.95;;;;;;;-146.27;89.24;81934.25;5026941;28;20033;-65
2023/10/12 01:47:56;;;;;;;15.90;3.85;;;;;;;-146.27;89.50;81894.06;5026850;28;20040;-65
2023/10/12 01:50:25;;;;;;;13.00;4.05;;;;;;;-146.27;89.29;81825.78;5023098;28;20029;-65
2023/10/12 01:52:58;;;;;;;12.50;3.88;;;;;;;-146.27;89.24;81859.94;5025211;28;20485;-65
2023/10/12 01:55:31;;;;;;;13.95;5.38;;;;;;;-146.27;89.59;81867.97;5023007;28;20605;-65
2023/10/12 01:57:57;;;;;;;11.57;4.03;;;;;;;-146.27;89.55;81865.94;5017758;28;20037;-65
2023/10/12 02:00:38;;;;;;;9.32;3.40;;;;;;;-146.27;89.80;81841.84;5025398;28;20036;-65
2023/10/12 02:03:26;;;;;;;15.60;4.35;;;;;;;-146.27;89.63;81829.78;5027272;28;20033;-65
2023/10/12 02:06:01;;;;;;;17.33;4.68;;;;;;;-146.27;89.51;81869.97;5022974;28;20112;-65
2023/10/12 02:08:40;;;;;;;14.18;4.80;;;;;;;-146.27;89.40;81829.78;5028443;28;20477;-66
2023/10/12 02:13:36;;;;;;;10.20;4.05;;;;;;;-146.27;89.37;81859.94;5028691;28;20042;-65
2023/10/12 02:16:07;;;;;;;15.02;4.22;;;;;;;-146.27;89.55;81845.88;5022368;28;20124;-65
2023/10/12 02:18:36;;;;;;;21.10;4.78;;;;;;;-146.27;89.75;81869.97;5018141;28;20033;-65
2023/10/12 02:21:09;;;;;;;12.60;3.88;;;;;;;-146.27;89.06;81863.94;5017189;28;20022;-65
2023/10/12 02:34:16;;;;;;;12.10;4.68;;;;;;;-146.27;90.18;81886.03;5026582;28;20481;-65
2023/10/12 02:37:16;;;;;;;11.43;3.72;;;;;;;-146.27;89.85;81869.97;5021628;28;20100;-66
2023/10/12 02:39:43;;;;;;;12.90;3.50;;;;;;;-146.27;89.83;81865.94;5023714;28;20456;-66
2023/10/12 02:47:22;;;;;;;12.05;3.53;;;;;;;-146.27;90.23;81902.09;5016796;28;20068;-66
2023/10/12 02:49:48;;;;;;;8.60;3.10;;;;;;;-146.27;90.27;81926.22;5016931;28;20032;-66
2023/10/12 02:52:14;;;;;;;12.82;3.20;;;;;;;-146.27;90.21;81892.06;5020088;28;20037;-65
2023/10/12 02:54:50;;;;;;;12.65;4.03;;;;;;;-146.27;90.37;81878.00;5014962;28;20030;-65
2023/10/12 02:57:25;;;;;;;13.75;3.55;;;;;;;-146.27;90.13;81853.91;5020911;28;20418;-65
2023/10/12 03:00:00;;;;;;;10.93;3.72;;;;;;;-146.27;90.10;81904.13;5016458;28;20103;-65
2023/10/12 03:02:34;;;;;;;11.60;3.35;;;;;;;-146.27;90.36;81926.22;5015453;28;20053;-65
2023/10/12 03:05:04;;;;;;;12.85;3.17;;;;;;;-146.27;90.34;81890.06;5019717;28;20681;-65
2023/10/12 03:07:30;;;;;;;9.40;3.55;;;;;;;-146.27;90.40;81867.97;5022318;28;20026;-65
2023/10/12 03:10:05;;;;;;;12.35;3.53;;;;;;;-146.27;89.64;81882.00;5018510;28;20084;-65
2023/10/12 03:12:34;;;;;;;10.27;2.90;;;;;;;-146.27;89.64;81894.06;5023782;28;20395;-65
2023/10/12 03:14:59;;;;;;;10.20;3.03;;;;;;;-146.27;90.04;81926.22;5023386;28;20128;-65
2023/10/12 03:17:26;;;;;;;15.38;3.25;;;;;;;-146.27;90.55;81884.03;5020748;28;20048;-65
2023/10/12 03:19:55;;;;;;;12.85;2.92;;;;;;;-146.27;90.21;81890.06;5016908;28;20145;-65
2023/10/12 03:22:34;;;;;;;9.40;2.60;;;;;;;-146.27;90.20;81914.16;5023917;28;20025;-65
2023/10/12 03:25:20;;;;;;;7.13;3.00;;;;;;;-146.27;90.55;81873.97;5020379;28;20497;-65
2023/10/12 03:27:52;;;;;;;12.43;3.13;;;;;;;-146.27;90.72;81890.06;5028589;28;20028;-65
2023/10/12 03:30:18;;;;;;;8.55;3.20;;;;;;;-146.27;90.45;81886.03;5023615;28;20022;-65
2023/10/12 03:32:44;;;;;;;8.52;2.88;;;;;;;-146.27;90.21;81894.06;5024283;28;20029;-65
2023/10/12 03:35:22;;;;;;;6.50;2.70;;;;;;;-146.27;90.20;81898.09;5025773;28;20029;-65
2023/10/12 03:37:52;;;;;;;11.05;3.20;;;;;;;-146.27;90.10;81876.00;5016967;28;20395;-65
2023/10/12 03:43:09;;;;;;;3.25;2.90;;;;;;;-146.27;90.68;81922.19;5023951;28;20897;-65
2023/10/12 03:45:38;;;;;;;15.00;3.23;;;;;;;-146.27;90.50;81946.28;5026442;28;20017;-65
2023/10/12 03:48:13;;;;;;;10.00;4.22;;;;;;;-146.27;90.50;81920.19;5025954;28;20382;-66
2023/10/12 03:50:58;;;;;;;8.98;4.82;;;;;;;-146.27;90.21;81948.31;5018007;28;20095;-66
2023/10/12 03:53:34;;;;;;;11.65;5.70;;;;;;;-146.27;90.06;81958.34;5022347;28;20025;-66
2023/10/12 03:56:01;;;;;;;13.40;5.45;;;;;;;-146.27;90.04;81992.50;5017112;28;20037;-66
2023/10/12 03:58:27;;;;;;;14.65;6.78;;;;;;;-146.27;90.22;81988.47;5024904;28;20408;-66
2023/10/12 04:03:40;;;;;;;18.17;6.45;;;;;;;-146.27;89.68;82024.63;5012077;28;20111;-66
2023/10/12 04:06:22;;;;;;;16.15;7.75;;;;;;;-146.27;89.95;82034.66;5017436;28;20040;-66
2023/10/12 04:08:54;;;;;;;15.60;7.25;;;;;;;-146.27;89.81;82026.63;5011427;28;20025;-66
2023/10/12 04:17:21;;;;;;;15.73;6.32;;;;;;;-146.27;91.18;82050.75;5021315;28;20058;-66
2023/10/12 04:20:14;;;;;;;16.80;6.80;;;;;;;-146.27;90.83;82024.63;5009657;28;20095;-66
2023/10/12 04:23:43;;;;;;;21.42;6.95;;;;;;;-146.27;91.02;82002.53;5010727;28;20038;-66
2023/10/12 04:25:32;;;;;;;15.00;6.95;;;;;;;-146.27;90.85;82046.72;5022586;28;20488;-66
2023/10/12 04:28:17;;;;;;;12.50;6.40;;;;;;;-146.27;90.63;82052.75;5027800;28;20474;-66
2023/10/12 04:33:24;;;;;;;13.25;7.40;;;;;;;-146.27;90.48;82060.78;5020038;28;20021;-66
2023/10/12 04:41:23;;;;;;;15.13;7.05;;;;;;;-146.27;90.26;82137.13;5025393;28;20037;-66
2023/10/12 04:43:34;;;;;;;15.10;7.20;;;;;;;-146.27;89.90;82068.81;5021228;28;20065;-66
2023/10/12 04:49:01;;;;;;;13.60;5.97;;;;;;;-146.27;90.15;82121.03;5013839;28;20045;-66
2023/10/12 04:51:30;;;;;;;15.73;6.63;;;;;;;-146.27;90.35;82094.94;5015515;28;20092;-66
2023/10/12 04:54:17;;;;;;;14.05;6.35;;;;;;;-146.27;90.64;82147.16;5022903;28;20047;-66
2023/10/12 04:56:56;;;;;;;16.77;6.15;;;;;;;-146.27;90.63;82159.22;5023737;28;20032;-65
2023/10/12 04:59:29;;;;;;;16.33;6.60;;;;;;;-146.27;90.36;82135.09;5013096;28;20026;-66
2023/10/12 05:09:48;;;;;;;4.90;2.13;;;;;;;-146.27;90.47;82199.38;5025377;28;20030;-66
2023/10/12 05:12:14;;;;;;;9.73;3.85;;;;;;;-146.27;90.88;82185.31;5021874;28;20120;-66
2023/10/12 05:14:39;;;;;;;6.93;3.30;;;;;;;-146.27;90.58;82219.47;5021945;28;20052;-66
2023/10/12 05:17:08;;;;;;;9.43;3.40;;;;;;;-146.27;90.93;82261.66;5015827;28;20536;-66
2023/10/12 05:19:33;;;;;;;3.80;1.98;;;;;;;-146.27;90.91;82191.34;5017856;28;20496;-66
2023/10/12 05:21:59;;;;;;;4.60;1.85;;;;;;;-146.27;90.47;82243.56;5026210;28;20026;-66
2023/10/12 05:24:24;;;;;;;4.53;1.20;;;;;;;-146.27;90.26;82247.59;5023451;28;20080;-66
2023/10/12 05:27:09;;;;;;;2.28;1.42;;;;;;;-146.27;90.07;82243.56;5024542;28;20131;-66
2023/10/12 05:29:38;;;;;;;3.70;1.67;;;;;;;-146.27;90.52;82267.69;5027008;28;20389;-65
2023/10/12 05:32:18;;;;;;;5.57;2.50;;;;;;;-146.27;90.56;82283.75;5021067;28;20036;-65
2023/10/12 05:39:47;;;;;;;4.97;2.47;;;;;;;-146.27;90.62;82295.81;5021390;28;20485;-66
2023/10/12 05:42:15;;;;;;;4.90;2.30;;;;;;;-146.27;89.97;82319.91;5022834;28;20076;-66
2023/10/12 05:44:44;;;;;;;7.22;2.40;;;;;;;-146.27;90.66;82291.78;5016636;28;20033;-66
2023/10/12 05:47:13;;;;;;;4.88;1.95;;;;;;;-146.27;90.88;82376.16;5025951;28;20028;-66
2023/10/12 05:49:40;;;;;;;3.65;2.40;;;;;;;-146.27;91.30;82398.25;5023404;28;20033;-66
2023/10/12 05:52:07;;;;;;;5.20;2.75;;;;;;;-146.27;90.99;82346.03;5016679;28;20033;-65
2023/10/12 05:54:33;;;;;;;9.60;3.70;;;;;;;-146.27;90.92;82329.94;5019388;28;20117;-66
2023/10/12 05:57:04;;;;;;;11.80;3.88;;;;;;;-146.27;91.07;82364.09;5026268;28;20464;-65
2023/10/12 05:59:29;;;;;;;9.63;3.88;;;;;;;-146.27;90.74;82390.22;5025645;28;20049;-66
2023/10/12 06:01:55;;;;;;;12.50;3.63;;;;;;;-146.27;90.57;82323.91;5025242;28;20178;-65
2023/10/12 06:04:20;;;;;;;7.28;4.10;;;;;;;-146.27;90.85;82225.50;5027291;28;20040;-66
2023/10/12 06:06:47;;;;;;;8.07;3.75;;;;;;;-146.27;91.07;82337.97;5015570;28;20032;-65
2023/10/12 06:09:24;;;;;;;10.93;3.65;;;;;;;-146.27;90.53;82333.97;5029163;28;20532;-65
2023/10/12 06:11:51;;;;;;;8.10;3.08;;;;;;;-146.27;90.69;82384.19;5019090;28;20113;-66
2023/10/12 06:14:20;;;;;;;11.68;2.75;;;;;;;-146.27;90.72;82344.00;5022305;28;20098;-65
2023/10/12 06:16:55;;;;;;;8.30;2.17;;;;;;;-146.27;90.70;82364.09;5023580;28;20030;-66
2023/10/12 06:19:28;;;;;;;15.40;2.83;;;;;;;-146.27;90.83;82390.22;5028815;28;20025;-66
2023/10/12 06:21:57;;;;;;;16.00;2.53;;;;;;;-146.27;91.50;82386.19;5030995;28;20552;-65
2023/10/12 06:24:57;;;;;;;10.85;2.90;;;;;;;-146.27;91.01;82368.13;5031386;28;20664;-65
2023/10/12 06:29:45;;;;;;;10.73;2.28;;;;;;;-146.27;90.98;82410.31;5022740;28;20041;-65
2023/10/12 06:32:17;;;;;;;13.02;3.13;;;;;;;-146.27;91.41;82386.19;5026739;28;20057;-66
2023/10/12 06:34:42;;;;;;;11.52;3.17;;;;;;;-146.27;91.77;82382.19;5023270;28;20025;-67
2023/10/12 06:37:30;;;;;;;15.98;3.40;;;;;;;-146.27;91.58;82380.16;5018883;28;20059;-67
2023/10/12 06:40:17;;;;;;;10.98;4.45;;;;;;;-146.27;91.51;82352.03;5020042;28;20116;-67
2023/10/12 06:42:39;;;;;;;16.92;4.43;;;;;;;-146.27;91.85;82372.13;5016738;28;20060;-67
2023/10/12 06:45:07;;;;;;;16.33;5.53;;;;;;;-146.27;91.43;82344.00;5028717;28;20029;-67
2023/10/12 06:47:41;;;;;;;15.55;4.88;;;;;;;-146.27;91.39;82378.16;5022374;28;20112;-67
2023/10/12 06:50:14;;;;;;;15.93;5.25;;;;;;;-146.27;91.88;82356.06;5018140;28;20038;-67
2023/10/12 06:52:40;;;;;;;14.23;4.93;;;;;;;-146.27;90.87;82376.16;5022196;28;20109;-67
2023/10/12 06:55:08;;;;;;;13.07;4.57;;;;;;;-146.27;91.33;82380.16;5026284;28;20459;-68
2023/10/12 06:57:42;;;;;;;12.90;5.07;;;;;;;-146.27;91.29;82358.06;5024734;28;20038;-67
2023/10/12 07:02:34;;;;;;;16.80;4.90;;;;;;;-146.27;90.95;82368.13;5027825;28;19917;-67
2023/10/12 07:05:04;;;;;;;14.88;4.85;;;;;;;-146.27;91.06;82376.16;5014704;28;20095;-67
2023/10/12 07:07:36;;;;;;;11.80;4.95;;;;;;;-146.27;91.39;82372.13;5027714;28;20568;-65
2023/10/12 07:12:43;;;;;;;12.60;3.60;;;;;;;-146.27;91.34;82390.22;5026641;28;20296;-65
2023/10/12 07:15:14;;;;;;;12.40;3.80;;;;;;;-146.27;91.21;82372.13;5027870;28;20603;-67
2023/10/12 07:17:48;;;;;;;9.98;3.45;;;;;;;-146.27;91.36;82404.28;5022570;28;20155;-67
2023/10/12 07:23:05;;;;;;;8.10;3.33;;;;;;;-146.27;91.41;82352.03;5023559;28;20129;-68
2023/10/12 07:25:35;;;;;;;8.35;2.88;;;;;;;-146.27;91.33;82376.16;5024389;28;20175;-67
2023/10/12 07:28:00;;;;;;;6.88;3.40;;;;;;;-146.27;91.50;82392.22;5022952;28;20138;-67
2023/10/12 07:30:36;;;;;;;6.78;2.80;;;;;;;-146.27;91.12;82376.16;5020953;28;20561;-68
2023/10/12 07:33:07;;;;;;;7.80;1.92;;;;;;;-146.27;91.01;82424.38;5029199;28;20026;-68
2023/10/12 07:35:38;;;;;;;9.80;2.28;;;;;;;-146.27;91.34;82428.38;5028777;28;20022;-67
2023/10/12 07:38:13;;;;;;;10.05;2.50;;;;;;;-146.27;91.07;82372.13;5023577;28;20069;-67
2023/10/12 07:40:56;;;;;;;7.20;2.65;;;;;;;-146.27;91.06;82372.13;5018155;28;20032;-67
2023/10/12 07:43:23;;;;;;;9.65;3.20;;;;;;;-146.27;91.09;82398.25;5025810;28;20025;-67
2023/10/12 07:46:09;;;;;;;9.43;3.33;;;;;;;-146.27;90.99;82420.34;5012298;28;20083;-67
2023/10/12 07:48:42;;;;;;;7.85;3.47;;;;;;;-146.27;90.69;82406.28;5023336;28;20459;-67
2023/10/12 07:51:53;;;;;;;12.70;3.97;;;;;;;-146.27;90.70;82392.22;5010856;28;20052;-67
2023/10/12 07:54:25;;;;;;;14.15;3.97;;;;;;;-146.27;90.67;82476.59;5027883;28;20280;-68
2023/10/12 07:56:48;;;;;;;10.02;4.13;;;;;;;-146.27;90.86;82422.34;5022826;28;20037;-68
2023/10/12 07:59:14;;;;;;;14.00;4.00;;;;;;;-146.27;90.98;82426.38;5030488;28;20769;-68
2023/10/12 08:01:39;;;;;;;9.73;4.00;;;;;;;-146.27;91.02;82426.38;5019931;28;20389;-67
2023/10/12 08:04:19;;;;;;;13.10;4.65;;;;;;;-146.27;91.41;82466.56;5017817;28;20025;-67
2023/10/12 08:06:44;;;;;;;18.70;4.88;;;;;;;-146.27;91.26;82408.28;5010301;28;20040;-67
2023/10/12 08:11:53;;;;;;;14.95;5.60;;;;;;;-146.27;90.82;82382.19;5021033;28;20041;-68
2023/10/12 08:17:24;;;;;;;13.38;5.43;;;;;;;-146.27;91.79;82368.13;5024379;28;20052;-68
2023/10/12 08:19:39;;;;;;;16.52;5.78;;;;;;;-146.27;91.68;82376.16;5020873;28;20524;-67
2023/10/12 08:22:14;;;;;;;15.45;5.72;;;;;;;-146.27;91.36;82358.06;5024578;28;20026;-67
2023/10/12 08:24:39;;;;;;;17.67;6.40;;;;;;;-146.27;90.96;82335.97;5022902;28;20013;-68
2023/10/12 08:27:06;;;;;;;17.35;5.47;;;;;;;-146.27;91.42;82432.41;5021600;28;20117;-66
2023/10/12 08:39:50;;;;;;;12.00;4.70;;;;;;;-146.27;91.08;82315.88;5019582;28;20030;-67
2023/10/12 08:44:55;;;;;;;9.27;3.57;;;;;;;-146.27;91.23;82315.88;5017141;28;20034;-66
2023/10/12 08:47:26;;;;;;;13.88;4.47;;;;;;;-146.27;91.02;82352.03;5015851;28;20025;-66
2023/10/12 08:49:53;;;;;;;10.82;3.83;;;;;;;-146.27;90.83;82352.03;5011611;28;20084;-66
2023/10/12 08:52:27;;;;;;;10.95;4.18;;;;;;;-146.27;90.91;82319.91;5022175;28;20030;-66
2023/10/12 08:55:12;;;;;;;11.60;4.53;;;;;;;-146.27;91.15;82311.88;5025014;28;20140;-66
2023/10/12 08:57:55;;;;;;;12.07;4.43;;;;;;;-146.27;91.16;82350.03;5020421;28;20025;-66
2023/10/12 09:03:45;;;;;;;11.40;5.45;;;;;;;-146.27;91.24;82388.22;5023908;28;20389;-66
2023/10/12 09:05:51;;;;;;;11.07;4.13;;;;;;;-146.27;91.56;82380.16;5027591;28;20037;-67
2023/10/12 09:13:28;;;;;;;10.75;4.13;;;;;;;-146.27;91.12;82362.09;5025038;28;20045;-67
2023/10/12 09:15:55;;;;;;;13.18;4.72;;;;;;;-146.27;91.30;82350.03;5028227;28;20079;-66
2023/10/12 09:18:29;;;;;;;10.98;3.97;;;;;;;-146.27;91.15;82323.91;5037940;28;20056;-66
2023/10/12 09:23:46;;;;;;;7.70;3.08;;;;;;;-146.27;90.74;82279.72;5035977;28;20021;-66
2023/10/12 09:26:15;;;;;;;8.30;2.67;;;;;;;-146.27;90.70;82333.97;5034171;28;20047;-65
2023/10/12 09:28:52;;;;;;;5.07;2.58;;;;;;;-146.27;90.60;82303.84;5035997;28;20025;-65
2023/10/12 09:36:55;;;;;;;4.80;2.50;;;;;;;-146.27;90.99;82319.91;5024531;28;20528;-67
2023/10/12 09:39:28;;;;;;;3.67;2.45;;;;;;;-146.27;90.68;82311.88;5031171;28;20025;-65
2023/10/12 09:41:59;;;;;;;3.72;2.38;;;;;;;-146.27;90.37;82311.88;5030441;28;20025;-65
2023/10/12 09:44:26;;;;;;;6.18;3.15;;;;;;;-146.27;90.72;82295.81;5033826;28;20036;-65
2023/10/12 09:46:55;;;;;;;5.85;2.58;;;;;;;-146.27;90.73;82303.84;5035640;28;20032;-66
2023/10/12 09:49:22;;;;;;;7.55;2.83;;;;;;;-146.27;90.88;82315.88;5036777;28;20139;-66
2023/10/12 09:51:54;;;;;;;8.73;3.05;;;;;;;-146.27;91.03;82333.97;5041234;28;20492;-66
2023/10/12 09:54:45;;;;;;;5.28;2.63;;;;;;;-146.27;91.05;82319.91;5040606;28;20426;-67
2023/10/12 09:57:19;;;;;;;4.35;2.83;;;;;;;-146.27;90.78;82299.81;5038865;28;20577;-67
2023/10/12 09:59:52;;;;;;;5.57;3.50;;;;;;;-146.27;91.09;82309.88;5035476;28;20037;-67
2023/10/12 10:02:33;;;;;;;8.68;3.38;;;;;;;-146.27;91.39;82319.91;5037123;28;20100;-67
2023/10/12 10:05:11;;;;;;;7.45;3.33;;;;;;;-146.27;91.33;82303.84;5028415;28;20060;-67
2023/10/12 10:07:42;;;;;;;8.10;3.83;;;;;;;-146.27;91.47;82299.81;5040879;28;20028;-66
2023/10/12 10:10:30;;;;;;;7.80;4.00;;;;;;;-146.27;91.69;82291.78;5029470;28;20025;-66
2023/10/12 10:13:00;;;;;;;6.90;3.97;;;;;;;-146.27;91.24;82293.78;5019937;28;20554;-66
2023/10/12 10:15:37;;;;;;;6.82;3.80;;;;;;;-146.27;90.83;82259.66;5018490;28;20072;-66
2023/10/12 10:18:04;;;;;;;6.15;3.75;;;;;;;-146.27;91.52;82247.59;5044038;28;20033;-66
2023/10/12 10:20:56;;;;;;;8.15;4.28;;;;;;;-146.27;91.34;82255.63;4999527;28;20079;-67
2023/10/12 10:23:22;;;;;;;7.13;3.92;;;;;;;-146.27;91.65;82247.59;5012607;28;20430;-67
2023/10/12 10:29:04;;;;;;;6.97;4.30;;;;;;;-146.27;91.31;82211.44;5068847;28;20548;-67
2023/10/12 10:31:34;;;;;;;6.55;3.65;;;;;;;-146.27;91.24;82195.38;5037505;28;20037;-67
2023/10/12 10:34:01;;;;;;;5.97;3.92;;;;;;;-146.27;91.33;82205.41;5021860;28;20421;-66
2023/10/12 10:36:34;;;;;;;8.25;4.60;;;;;;;-146.27;90.86;82121.03;5027695;28;20342;-66
2023/10/12 10:39:03;;;;;;;8.77;5.30;;;;;;;-146.27;89.49;82054.75;5030632;28;20450;-67
2023/10/12 10:41:54;;;;;;;11.35;5.30;;;;;;;-146.27;89.49;82106.97;5023987;28;20064;-66
2023/10/12 10:44:23;;;;;;;9.45;5.18;;;;;;;-146.27;90.47;82167.25;5027692;28;20036;-67
2023/10/12 10:46:54;;;;;;;10.65;5.38;;;;;;;-146.27;91.07;82131.09;5017170;28;20021;-67
2023/10/12 10:49:21;;;;;;;12.68;6.22;;;;;;;-146.27;91.44;82131.09;5015110;28;20026;-66
2023/10/12 10:51:48;;;;;;;10.20;5.72;;;;;;;-146.27;91.26;82171.25;5025431;28;20125;-66
2023/10/12 10:54:20;;;;;;;8.55;5.10;;;;;;;-146.27;91.35;82111.00;5027821;28;20044;-66
2023/10/12 10:56:47;;;;;;;9.52;6.15;;;;;;;-146.27;91.14;82171.25;5030507;28;20087;-66
2023/10/12 10:59:13;;;;;;;12.80;6.03;;;;;;;-146.27;91.26;82201.38;5030243;28;20033;-67
2023/10/12 11:01:52;;;;;;;12.88;6.45;;;;;;;-146.27;90.99;82173.28;5031528;28;20025;-66
2023/10/12 11:07:03;;;;;;;15.20;6.90;;;;;;;-146.27;91.16;82159.22;5027827;28;20470;-67
2023/10/12 11:09:31;;;;;;;14.00;6.65;;;;;;;-146.27;91.15;82173.28;5029318;28;20025;-67
2023/10/12 11:12:00;;;;;;;14.32;7.07;;;;;;;-146.27;91.92;82145.16;5031221;28;20119;-67
2023/10/12 11:14:31;;;;;;;15.25;6.70;;;;;;;-146.27;91.71;82171.25;5021624;28;20084;-67
2023/10/12 11:16:57;;;;;;;9.93;6.18;;;;;;;-146.27;91.85;82147.16;5031185;28;20372;-67
2023/10/12 11:19:23;;;;;;;11.18;5.90;;;;;;;-146.27;91.91;82111.00;5028414;28;20552;-67
2023/10/12 11:21:52;;;;;;;13.95;6.97;;;;;;;-146.27;91.63;82163.22;5019707;28;20025;-66
2023/10/12 11:24:20;;;;;;;12.70;7.03;;;;;;;-146.27;92.01;82143.13;5027578;28;20496;-67
2023/10/12 11:26:51;;;;;;;15.82;7.25;;;;;;;-146.27;92.07;82157.19;5029552;28;20029;-67
2023/10/12 11:29:17;;;;;;;11.70;6.65;;;;;;;-146.27;92.52;82125.06;5024709;28;20088;-67
2023/10/12 11:31:46;;;;;;;12.57;6.90;;;;;;;-146.27;92.13;82147.16;5024850;28;20029;-66
2023/10/12 11:34:21;;;;;;;13.98;7.43;;;;;;;-146.27;92.23;82151.16;5030924;28;20029;-66
2023/10/12 11:36:47;;;;;;;18.70;7.65;;;;;;;-146.27;92.07;82133.09;5026923;28;20432;-65
2023/10/12 11:39:18;;;;;;;12.52;6.93;;;;;;;-146.27;92.26;82123.06;5030059;28;20087;-65
2023/10/12 11:42:12;;;;;;;12.13;7.03;;;;;;;-146.27;92.23;82117.03;5030239;28;20039;-66
2023/10/12 11:44:42;;;;;;;16.02;7.50;;;;;;;-146.27;92.08;82090.91;5024036;28;20029;-66
2023/10/12 11:47:13;;;;;;;16.33;7.32;;;;;;;-146.27;91.88;82117.03;5018599;28;20038;-66
2023/10/12 11:49:48;;;;;;;16.63;8.13;;;;;;;-146.27;92.12;82129.06;5019413;28;20025;-66
2023/10/12 11:52:17;;;;;;;15.25;7.78;;;;;;;-146.27;92.14;82119.03;5022107;28;20036;-66
2023/10/12 11:54:44;;;;;;;15.18;7.95;;;;;;;-146.27;91.99;82119.03;5019913;28;20109;-66
2023/10/12 11:57:10;;;;;;;18.25;9.35;;;;;;;-146.27;92.26;82094.94;5019810;28;20333;-67
2023/10/12 11:59:36;;;;;;;19.30;9.30;;;;;;;-146.27;92.19;82078.84;5030421;28;20033;-68
2023/10/12 12:02:15;;;;;;;19.58;9.82;;;;;;;-146.27;92.07;82086.91;5027908;28;20100;-68
2023/10/12 12:04:40;;;;;;;19.88;9.63;;;;;;;-146.27;91.96;82058.78;5019880;28;20022;-68
2023/10/12 12:07:16;;;;;;;26.45;11.43;;;;;;;-146.27;91.80;82078.84;5025522;28;20025;-68
2023/10/12 12:09:43;;;;;;;23.40;10.73;;;;;;;-146.27;91.87;82062.78;5023184;28;20037;-67
2023/10/12 12:12:12;;;;;;;20.38;11.25;;;;;;;-146.27;91.98;82040.69;5018609;28;20044;-67
2023/10/12 12:14:46;;;;;;;26.65;12.38;;;;;;;-146.27;92.08;82046.72;5021901;28;20044;-67
2023/10/12 12:17:13;;;;;;;22.50;11.82;;;;;;;-146.27;91.94;82044.72;5016930;28;20033;-67
2023/10/12 12:19:41;;;;;;;28.63;11.93;;;;;;;-146.27;92.15;82068.81;5030124;28;20504;-67
2023/10/12 12:22:10;;;;;;;23.25;11.93;;;;;;;-146.27;92.12;82054.75;5020095;28;20025;-68
2023/10/12 12:24:37;;;;;;;31.38;12.52;;;;;;;-146.27;92.23;82058.78;5028656;28;20481;-68
2023/10/12 12:27:04;;;;;;;30.27;13.65;;;;;;;-146.27;92.60;81994.50;5025710;28;20064;-68
2023/10/12 12:29:31;;;;;;;46.28;13.00;;;;;;;-146.27;92.52;81992.50;5026533;28;20032;-68
2023/10/12 12:32:03;;;;;;;52.45;8.88;;;;;;;-146.27;92.68;82076.84;5036422;28;20507;-68
2023/10/12 12:34:47;;;;;;;60.70;6.82;;;;;;;-146.27;93.13;82123.06;5022578;28;20064;-68
2023/10/12 12:37:16;;;;;;;10.43;4.32;;;;;;;-146.27;90.53;82006.53;5024583;28;20405;-69
2023/10/12 12:39:42;;;;;;;7.50;3.67;;;;;;;-146.27;90.09;81994.50;5019413;28;20030;-68
2023/10/12 12:42:11;;;;;;;8.68;3.55;;;;;;;-146.27;89.67;81970.41;5030710;28;20116;-68
2023/10/12 12:44:39;;;;;;;12.90;3.80;;;;;;;-146.27;89.50;81958.34;5033349;28;20033;-68
2023/10/12 12:47:06;;;;;;;12.43;3.58;;;;;;;-146.27;89.34;81938.25;5039259;28;20033;-69
2023/10/12 12:49:32;;;;;;;8.23;3.42;;;;;;;-146.27;89.32;81974.41;5028447;28;20397;-69
2023/10/12 12:51:58;;;;;;;7.90;2.90;;;;;;;-146.27;89.31;81908.13;5022191;28;20041;-69
2023/10/12 12:54:24;;;;;;;6.38;2.42;;;;;;;-146.27;89.26;81859.94;5029042;28;20433;-70
2023/10/12 12:56:53;;;;;;;8.52;3.55;;;;;;;-146.27;89.64;81922.19;5018853;28;20025;-68
2023/10/12 12:59:21;;;;;;;8.65;3.10;;;;;;;-146.27;89.77;81888.03;5014115;28;20025;-68
2023/10/12 13:01:46;;;;;;;6.47;2.72;;;;;;;-146.27;89.56;81845.88;5020257;28;20053;-68
2023/10/12 13:04:14;;;;;;;7.07;3.05;;;;;;;-146.27;89.40;81843.84;5024185;28;20029;-68
2023/10/12 13:06:39;;;;;;;4.95;3.28;;;;;;;-146.27;89.47;81821.75;5019027;28;20065;-68
2023/10/12 13:09:05;;;;;;;9.10;3.63;;;;;;;-146.27;89.26;81813.72;5029190;28;20053;-69
2023/10/12 13:11:32;;;;;;;5.63;3.47;;;;;;;-146.27;89.08;81813.72;5028724;28;20037;-68
2023/10/12 13:13:57;;;;;;;7.68;4.47;;;;;;;-146.27;89.19;81821.75;5036076;28;20087;-69
2023/10/12 13:16:22;;;;;;;10.95;5.47;;;;;;;-146.27;89.02;81795.66;5049226;28;20060;-68
2023/10/12 13:18:48;;;;;;;6.88;5.20;;;;;;;-146.27;89.05;81753.47;5042788;28;20048;-69
2023/10/12 13:21:15;;;;;;;10.95;6.75;;;;;;;-146.27;88.88;81743.44;5019072;28;20040;-69
2023/10/12 13:23:42;;;;;;;10.80;6.75;;;;;;;-146.27;89.37;81797.66;5038403;28;20021;-69
2023/10/12 13:26:13;;;;;;;13.23;7.22;;;;;;;-146.27;89.53;81741.41;5031334;28;20033;-69
2023/10/12 13:28:41;;;;;;;12.05;7.80;;;;;;;-146.27;89.70;81737.41;5021721;28;20554;-69
2023/10/12 13:31:10;;;;;;;14.02;9.48;;;;;;;-146.27;90.54;81797.66;5023755;28;20026;-69